Colton, California
Current Conditions -  °F | °C
As of 3:45 PM on Saturday 22 Nov 2014 (Local Time) from KSBD Reporting Station
Scattered Clouds Scattered Clouds  
Wind Chill: 68°   Ceiling: Unl
Heat Index: 68°   Visibility: 10mi
Dew Point: 36°   Wind: 7mph
Humidity: 30%   Direction: 270°W
Pressure: 30.02"   Gusts: NA
Location:  34.07°N, 117.32°W
Report Text: KSBD 222345Z 27006KT 10SM SCT200 20/02 A3002
Loading
Personal Weather Stations






























Interactive Weather Map New forecast layout! Learn more

10-Day Weather Forecast

Advertisements
Track Severe Weather on mobile